sensor_id;sensor_type;location;lat;lon;timestamp;P1;durP1;ratioP1;P2;durP2;ratioP2
18144;SDS011;14857;41.200;-8.326;2022-08-01T00:01:45;860.17;;;770.80;;
18144;SDS011;14857;41.200;-8.326;2022-08-01T00:04:18;843.58;;;754.55;;
18144;SDS011;14857;41.200;-8.326;2022-08-01T00:06:48;871.33;;;781.40;;
18144;SDS011;14857;41.200;-8.326;2022-08-01T00:09:17;873.28;;;783.35;;
18144;SDS011;14857;41.200;-8.326;2022-08-01T00:11:50;860.85;;;771.15;;
18144;SDS011;14857;41.200;-8.326;2022-08-01T00:14:32;830.05;;;741.53;;
18144;SDS011;14857;41.200;-8.326;2022-08-01T00:17:00;874.13;;;783.97;;
18144;SDS011;14857;41.200;-8.326;2022-08-01T00:19:33;823.95;;;735.45;;
18144;SDS011;14857;41.200;-8.326;2022-08-01T00:22:03;828.17;;;739.65;;
18144;SDS011;14857;41.200;-8.326;2022-08-01T00:24:32;850.67;;;761.42;;
18144;SDS011;14857;41.200;-8.326;2022-08-01T00:27:00;860.53;;;771.00;;
18144;SDS011;14857;41.200;-8.326;2022-08-01T00:29:29;846.88;;;757.47;;
18144;SDS011;14857;41.200;-8.326;2022-08-01T00:32:18;851.22;;;761.75;;
18144;SDS011;14857;41.200;-8.326;2022-08-01T00:34:47;854.65;;;764.97;;
18144;SDS011;14857;41.200;-8.326;2022-08-01T00:37:18;838.50;;;749.58;;
18144;SDS011;14857;41.200;-8.326;2022-08-01T00:39:46;849.17;;;759.42;;
18144;SDS011;14857;41.200;-8.326;2022-08-01T00:42:15;862.72;;;772.67;;
18144;SDS011;14857;41.200;-8.326;2022-08-01T00:44:43;857.88;;;768.35;;
18144;SDS011;14857;41.200;-8.326;2022-08-01T00:47:12;852.72;;;763.28;;
18144;SDS011;14857;41.200;-8.326;2022-08-01T00:49:41;848.95;;;759.72;;
18144;SDS011;14857;41.200;-8.326;2022-08-01T00:52:10;857.67;;;768.17;;
18144;SDS011;14857;41.200;-8.326;2022-08-01T00:54:40;827.15;;;738.35;;
18144;SDS011;14857;41.200;-8.326;2022-08-01T00:57:09;818.28;;;729.90;;
18144;SDS011;14857;41.200;-8.326;2022-08-01T00:59:41;823.92;;;735.45;;
18144;SDS011;14857;41.200;-8.326;2022-08-01T01:02:10;828.15;;;738.97;;
18144;SDS011;14857;41.200;-8.326;2022-08-01T01:04:41;840.78;;;751.58;;
18144;SDS011;14857;41.200;-8.326;2022-08-01T01:07:12;829.60;;;740.45;;
18144;SDS011;14857;41.200;-8.326;2022-08-01T01:09:50;808.75;;;720.55;;
18144;SDS011;14857;41.200;-8.326;2022-08-01T01:12:26;821.95;;;733.40;;
18144;SDS011;14857;41.200;-8.326;2022-08-01T01:15:04;807.05;;;719.13;;
18144;SDS011;14857;41.200;-8.326;2022-08-01T01:17:36;824.30;;;735.60;;
18144;SDS011;14857;41.200;-8.326;2022-08-01T01:20:17;799.30;;;711.63;;
18144;SDS011;14857;41.200;-8.326;2022-08-01T01:22:56;831.97;;;743.20;;
18144;SDS011;14857;41.200;-8.326;2022-08-01T01:25:46;838.55;;;749.42;;
18144;SDS011;14857;41.200;-8.326;2022-08-01T01:28:34;827.92;;;739.22;;
18144;SDS011;14857;41.200;-8.326;2022-08-01T01:31:11;816.65;;;728.17;;
18144;SDS011;14857;41.200;-8.326;2022-08-01T01:33:41;830.15;;;741.13;;
18144;SDS011;14857;41.200;-8.326;2022-08-01T01:36:13;814.88;;;726.40;;
18144;SDS011;14857;41.200;-8.326;2022-08-01T01:38:45;805.33;;;716.85;;
18144;SDS011;14857;41.200;-8.326;2022-08-01T01:41:15;815.97;;;727.60;;
18144;SDS011;14857;41.200;-8.326;2022-08-01T01:43:46;833.80;;;744.50;;
18144;SDS011;14857;41.200;-8.326;2022-08-01T01:46:19;794.28;;;706.53;;
18144;SDS011;14857;41.200;-8.326;2022-08-01T01:48:51;830.80;;;741.47;;
18144;SDS011;14857;41.200;-8.326;2022-08-01T01:51:21;832.58;;;743.42;;
18144;SDS011;14857;41.200;-8.326;2022-08-01T01:53:51;823.13;;;734.60;;
18144;SDS011;14857;41.200;-8.326;2022-08-01T01:56:20;791.92;;;694.80;;
18144;SDS011;14857;41.200;-8.326;2022-08-01T01:58:51;783.95;;;690.75;;
18144;SDS011;14857;41.200;-8.326;2022-08-01T02:01:24;800.53;;;712.83;;
18144;SDS011;14857;41.200;-8.326;2022-08-01T02:04:16;807.95;;;719.92;;
18144;SDS011;14857;41.200;-8.326;2022-08-01T02:06:46;788.38;;;696.78;;
18144;SDS011;14857;41.200;-8.326;2022-08-01T02:09:18;802.28;;;714.05;;
18144;SDS011;14857;41.200;-8.326;2022-08-01T02:11:48;803.53;;;715.42;;
18144;SDS011;14857;41.200;-8.326;2022-08-01T02:14:35;790.50;;;698.05;;
18144;SDS011;14857;41.200;-8.326;2022-08-01T02:17:08;789.75;;;700.22;;
18144;SDS011;14857;41.200;-8.326;2022-08-01T02:19:38;796.33;;;706.88;;
18144;SDS011;14857;41.200;-8.326;2022-08-01T02:22:08;787.97;;;696.13;;
18144;SDS011;14857;41.200;-8.326;2022-08-01T02:24:40;796.45;;;703.70;;
18144;SDS011;14857;41.200;-8.326;2022-08-01T02:27:14;783.95;;;678.03;;
18144;SDS011;14857;41.200;-8.326;2022-08-01T02:29:47;798.95;;;711.13;;
18144;SDS011;14857;41.200;-8.326;2022-08-01T02:32:23;777.95;;;671.35;;
18144;SDS011;14857;41.200;-8.326;2022-08-01T02:34:55;784.08;;;678.47;;
18144;SDS011;14857;41.200;-8.326;2022-08-01T02:37:25;781.15;;;672.50;;
18144;SDS011;14857;41.200;-8.326;2022-08-01T02:39:56;794.10;;;703.47;;
18144;SDS011;14857;41.200;-8.326;2022-08-01T02:42:27;804.38;;;716.15;;
18144;SDS011;14857;41.200;-8.326;2022-08-01T02:44:57;786.20;;;680.25;;
18144;SDS011;14857;41.200;-8.326;2022-08-01T02:47:27;789.65;;;691.80;;
18144;SDS011;14857;41.200;-8.326;2022-08-01T02:49:58;782.55;;;672.35;;
18144;SDS011;14857;41.200;-8.326;2022-08-01T02:52:28;783.25;;;682.45;;
18144;SDS011;14857;41.200;-8.326;2022-08-01T02:54:58;798.92;;;710.97;;
18144;SDS011;14857;41.200;-8.326;2022-08-01T02:57:29;782.65;;;678.60;;
18144;SDS011;14857;41.200;-8.326;2022-08-01T03:00:18;777.17;;;668.83;;
18144;SDS011;14857;41.200;-8.326;2022-08-01T03:02:51;793.95;;;705.63;;
18144;SDS011;14857;41.200;-8.326;2022-08-01T03:05:22;803.22;;;715.00;;
18144;SDS011;14857;41.200;-8.326;2022-08-01T03:07:53;780.33;;;675.35;;
18144;SDS011;14857;41.200;-8.326;2022-08-01T03:10:29;780.88;;;675.55;;
18144;SDS011;14857;41.200;-8.326;2022-08-01T03:12:59;782.78;;;678.30;;
18144;SDS011;14857;41.200;-8.326;2022-08-01T03:15:30;804.38;;;716.45;;
18144;SDS011;14857;41.200;-8.326;2022-08-01T03:18:03;782.58;;;670.22;;
18144;SDS011;14857;41.200;-8.326;2022-08-01T03:20:34;786.38;;;686.95;;
18144;SDS011;14857;41.200;-8.326;2022-08-01T03:23:05;785.38;;;686.83;;
18144;SDS011;14857;41.200;-8.326;2022-08-01T03:25:36;784.97;;;689.15;;
18144;SDS011;14857;41.200;-8.326;2022-08-01T03:28:08;793.65;;;704.40;;
18144;SDS011;14857;41.200;-8.326;2022-08-01T03:30:40;790.75;;;695.08;;
18144;SDS011;14857;41.200;-8.326;2022-08-01T03:33:11;784.30;;;679.42;;
18144;SDS011;14857;41.200;-8.326;2022-08-01T03:35:42;786.35;;;683.53;;
18144;SDS011;14857;41.200;-8.326;2022-08-01T03:38:17;789.85;;;689.88;;
18144;SDS011;14857;41.200;-8.326;2022-08-01T03:40:51;779.35;;;664.20;;
18144;SDS011;14857;41.200;-8.326;2022-08-01T03:43:22;786.28;;;683.80;;
18144;SDS011;14857;41.200;-8.326;2022-08-01T03:45:57;779.15;;;648.47;;
18144;SDS011;14857;41.200;-8.326;2022-08-01T03:48:36;786.28;;;691.65;;
18144;SDS011;14857;41.200;-8.326;2022-08-01T03:51:08;789.70;;;689.67;;
18144;SDS011;14857;41.200;-8.326;2022-08-01T03:53:39;782.38;;;670.42;;
18144;SDS011;14857;41.200;-8.326;2022-08-01T03:56:10;787.35;;;688.10;;
18144;SDS011;14857;41.200;-8.326;2022-08-01T03:58:45;779.47;;;661.65;;
18144;SDS011;14857;41.200;-8.326;2022-08-01T04:04:27;774.53;;;652.10;;
18144;SDS011;14857;41.200;-8.326;2022-08-01T04:06:56;779.25;;;665.08;;
18144;SDS011;14857;41.200;-8.326;2022-08-01T04:09:30;780.22;;;668.90;;
18144;SDS011;14857;41.200;-8.326;2022-08-01T04:11:59;778.63;;;671.83;;
18144;SDS011;14857;41.200;-8.326;2022-08-01T04:14:38;786.47;;;686.13;;
18144;SDS011;14857;41.200;-8.326;2022-08-01T04:17:06;780.75;;;675.47;;
18144;SDS011;14857;41.200;-8.326;2022-08-01T04:19:36;782.35;;;670.50;;
18144;SDS011;14857;41.200;-8.326;2022-08-01T04:22:05;782.05;;;678.03;;
18144;SDS011;14857;41.200;-8.326;2022-08-01T04:24:35;780.75;;;664.85;;
18144;SDS011;14857;41.200;-8.326;2022-08-01T04:27:05;774.50;;;646.15;;
18144;SDS011;14857;41.200;-8.326;2022-08-01T04:29:39;776.60;;;637.05;;
18144;SDS011;14857;41.200;-8.326;2022-08-01T04:32:11;770.50;;;627.08;;
18144;SDS011;14857;41.200;-8.326;2022-08-01T04:34:43;784.95;;;671.63;;
18144;SDS011;14857;41.200;-8.326;2022-08-01T04:37:14;776.70;;;635.42;;
18144;SDS011;14857;41.200;-8.326;2022-08-01T04:39:44;782.28;;;659.95;;
18144;SDS011;14857;41.200;-8.326;2022-08-01T04:42:16;782.38;;;662.50;;
18144;SDS011;14857;41.200;-8.326;2022-08-01T04:44:53;779.72;;;659.42;;
18144;SDS011;14857;41.200;-8.326;2022-08-01T04:47:22;784.85;;;668.58;;
18144;SDS011;14857;41.200;-8.326;2022-08-01T04:49:52;787.38;;;681.90;;
18144;SDS011;14857;41.200;-8.326;2022-08-01T04:52:23;783.53;;;674.05;;
18144;SDS011;14857;41.200;-8.326;2022-08-01T04:55:00;781.65;;;668.45;;
18144;SDS011;14857;41.200;-8.326;2022-08-01T04:57:29;781.47;;;671.05;;
18144;SDS011;14857;41.200;-8.326;2022-08-01T04:59:58;782.03;;;669.65;;
18144;SDS011;14857;41.200;-8.326;2022-08-01T05:02:29;779.17;;;665.05;;
18144;SDS011;14857;41.200;-8.326;2022-08-01T05:04:59;769.72;;;628.80;;
18144;SDS011;14857;41.200;-8.326;2022-08-01T05:07:28;779.67;;;651.92;;
18144;SDS011;14857;41.200;-8.326;2022-08-01T05:10:10;781.03;;;663.47;;
18144;SDS011;14857;41.200;-8.326;2022-08-01T05:12:39;780.90;;;645.72;;
18144;SDS011;14857;41.200;-8.326;2022-08-01T05:15:08;781.63;;;662.20;;
18144;SDS011;14857;41.200;-8.326;2022-08-01T05:17:41;777.63;;;654.88;;
18144;SDS011;14857;41.200;-8.326;2022-08-01T05:20:11;781.80;;;660.03;;
18144;SDS011;14857;41.200;-8.326;2022-08-01T05:22:40;779.55;;;643.78;;
18144;SDS011;14857;41.200;-8.326;2022-08-01T05:25:09;780.65;;;659.03;;
18144;SDS011;14857;41.200;-8.326;2022-08-01T05:27:46;778.50;;;636.55;;
18144;SDS011;14857;41.200;-8.326;2022-08-01T05:30:16;778.65;;;646.75;;
18144;SDS011;14857;41.200;-8.326;2022-08-01T05:32:45;785.42;;;649.65;;
18144;SDS011;14857;41.200;-8.326;2022-08-01T05:35:15;772.70;;;638.67;;
18144;SDS011;14857;41.200;-8.326;2022-08-01T05:37:43;767.38;;;628.50;;
18144;SDS011;14857;41.200;-8.326;2022-08-01T05:40:12;768.45;;;622.80;;
18144;SDS011;14857;41.200;-8.326;2022-08-01T05:42:40;780.35;;;657.45;;
18144;SDS011;14857;41.200;-8.326;2022-08-01T05:45:09;782.10;;;659.50;;
18144;SDS011;14857;41.200;-8.326;2022-08-01T05:47:38;773.17;;;649.03;;
18144;SDS011;14857;41.200;-8.326;2022-08-01T05:50:08;768.33;;;620.05;;
18144;SDS011;14857;41.200;-8.326;2022-08-01T05:52:38;773.67;;;649.55;;
18144;SDS011;14857;41.200;-8.326;2022-08-01T05:55:07;780.20;;;663.58;;
18144;SDS011;14857;41.200;-8.326;2022-08-01T05:57:37;774.72;;;662.22;;
18144;SDS011;14857;41.200;-8.326;2022-08-01T06:00:07;773.45;;;633.58;;
18144;SDS011;14857;41.200;-8.326;2022-08-01T06:02:40;774.05;;;632.20;;
18144;SDS011;14857;41.200;-8.326;2022-08-01T06:05:10;768.70;;;636.10;;
18144;SDS011;14857;41.200;-8.326;2022-08-01T06:07:40;779.08;;;660.78;;
18144;SDS011;14857;41.200;-8.326;2022-08-01T06:10:09;782.08;;;674.72;;
18144;SDS011;14857;41.200;-8.326;2022-08-01T06:12:38;770.63;;;641.67;;
18144;SDS011;14857;41.200;-8.326;2022-08-01T06:15:06;771.13;;;640.65;;
18144;SDS011;14857;41.200;-8.326;2022-08-01T06:17:37;790.53;;;700.25;;
18144;SDS011;14857;41.200;-8.326;2022-08-01T06:20:08;817.45;;;728.85;;
18144;SDS011;14857;41.200;-8.326;2022-08-01T06:22:38;833.67;;;743.85;;
18144;SDS011;14857;41.200;-8.326;2022-08-01T06:25:08;906.17;;;813.33;;
18144;SDS011;14857;41.200;-8.326;2022-08-01T06:27:37;879.60;;;788.13;;
18144;SDS011;14857;41.200;-8.326;2022-08-01T06:30:06;901.50;;;808.88;;
18144;SDS011;14857;41.200;-8.326;2022-08-01T06:32:35;951.88;;;857.28;;
18144;SDS011;14857;41.200;-8.326;2022-08-01T06:35:07;943.55;;;849.58;;
18144;SDS011;14857;41.200;-8.326;2022-08-01T06:37:39;986.72;;;890.50;;
18144;SDS011;14857;41.200;-8.326;2022-08-01T06:40:10;974.38;;;879.17;;
18144;SDS011;14857;41.200;-8.326;2022-08-01T06:42:43;981.50;;;886.50;;
18144;SDS011;14857;41.200;-8.326;2022-08-01T06:45:13;988.25;;;892.60;;
18144;SDS011;14857;41.200;-8.326;2022-08-01T06:47:42;996.05;;;899.72;;
18144;SDS011;14857;41.200;-8.326;2022-08-01T06:50:16;1014.78;;;917.97;;
18144;SDS011;14857;41.200;-8.326;2022-08-01T06:52:45;979.05;;;883.55;;
18144;SDS011;14857;41.200;-8.326;2022-08-01T06:55:15;969.85;;;875.35;;
18144;SDS011;14857;41.200;-8.326;2022-08-01T06:57:47;1006.28;;;909.80;;
18144;SDS011;14857;41.200;-8.326;2022-08-01T07:00:17;985.80;;;890.40;;
18144;SDS011;14857;41.200;-8.326;2022-08-01T07:02:50;994.38;;;898.95;;
18144;SDS011;14857;41.200;-8.326;2022-08-01T07:05:19;1030.80;;;933.28;;
18144;SDS011;14857;41.200;-8.326;2022-08-01T07:07:48;1024.13;;;927.40;;
18144;SDS011;14857;41.200;-8.326;2022-08-01T07:10:18;1000.55;;;904.55;;
18144;SDS011;14857;41.200;-8.326;2022-08-01T07:12:47;989.35;;;893.95;;
18144;SDS011;14857;41.200;-8.326;2022-08-01T07:15:15;1019.65;;;923.03;;
18144;SDS011;14857;41.200;-8.326;2022-08-01T07:17:44;1021.00;;;924.13;;
18144;SDS011;14857;41.200;-8.326;2022-08-01T07:20:13;1038.03;;;940.78;;
18144;SDS011;14857;41.200;-8.326;2022-08-01T07:22:42;1051.25;;;952.60;;
18144;SDS011;14857;41.200;-8.326;2022-08-01T07:25:14;1029.05;;;931.78;;
18144;SDS011;14857;41.200;-8.326;2022-08-01T07:27:44;1048.72;;;949.95;;
18144;SDS011;14857;41.200;-8.326;2022-08-01T07:30:13;1075.10;;;975.10;;
18144;SDS011;14857;41.200;-8.326;2022-08-01T07:32:41;1132.88;;;999.90;;
18144;SDS011;14857;41.200;-8.326;2022-08-01T07:35:10;1088.10;;;987.42;;
18144;SDS011;14857;41.200;-8.326;2022-08-01T07:37:38;1059.38;;;960.30;;
18144;SDS011;14857;41.200;-8.326;2022-08-01T07:40:15;1077.63;;;978.15;;
18144;SDS011;14857;41.200;-8.326;2022-08-01T07:42:46;1069.85;;;970.38;;
18144;SDS011;14857;41.200;-8.326;2022-08-01T07:45:15;1048.32;;;949.90;;
18144;SDS011;14857;41.200;-8.326;2022-08-01T07:47:43;1045.78;;;947.85;;
18144;SDS011;14857;41.200;-8.326;2022-08-01T07:50:13;1042.40;;;944.40;;
18144;SDS011;14857;41.200;-8.326;2022-08-01T07:52:42;1048.68;;;950.58;;
18144;SDS011;14857;41.200;-8.326;2022-08-01T07:55:12;1046.75;;;948.58;;
18144;SDS011;14857;41.200;-8.326;2022-08-01T07:57:42;1058.50;;;959.95;;
18144;SDS011;14857;41.200;-8.326;2022-08-01T08:00:12;1063.40;;;964.45;;
18144;SDS011;14857;41.200;-8.326;2022-08-01T08:02:41;1062.55;;;964.03;;
18144;SDS011;14857;41.200;-8.326;2022-08-01T08:05:11;1072.93;;;973.28;;
18144;SDS011;14857;41.200;-8.326;2022-08-01T08:07:39;1075.13;;;975.90;;
18144;SDS011;14857;41.200;-8.326;2022-08-01T08:10:08;1086.20;;;985.63;;
18144;SDS011;14857;41.200;-8.326;2022-08-01T08:12:37;1084.20;;;984.60;;
18144;SDS011;14857;41.200;-8.326;2022-08-01T08:15:06;1059.68;;;960.80;;
18144;SDS011;14857;41.200;-8.326;2022-08-01T08:17:36;1084.10;;;984.22;;
18144;SDS011;14857;41.200;-8.326;2022-08-01T08:20:06;1074.30;;;975.25;;
18144;SDS011;14857;41.200;-8.326;2022-08-01T08:22:36;1083.25;;;983.50;;
18144;SDS011;14857;41.200;-8.326;2022-08-01T08:25:05;1101.20;;;997.05;;
18144;SDS011;14857;41.200;-8.326;2022-08-01T08:27:35;1122.50;;;999.90;;
18144;SDS011;14857;41.200;-8.326;2022-08-01T08:30:04;1133.60;;;999.90;;
18144;SDS011;14857;41.200;-8.326;2022-08-01T08:32:36;1136.55;;;999.90;;
18144;SDS011;14857;41.200;-8.326;2022-08-01T08:35:05;1141.10;;;999.90;;
18144;SDS011;14857;41.200;-8.326;2022-08-01T08:37:38;1125.03;;;999.90;;
18144;SDS011;14857;41.200;-8.326;2022-08-01T08:40:13;1153.07;;;999.90;;
18144;SDS011;14857;41.200;-8.326;2022-08-01T08:42:43;1131.30;;;999.90;;
18144;SDS011;14857;41.200;-8.326;2022-08-01T08:45:14;1153.35;;;999.90;;
18144;SDS011;14857;41.200;-8.326;2022-08-01T08:47:44;1166.70;;;999.90;;
18144;SDS011;14857;41.200;-8.326;2022-08-01T08:50:15;1167.70;;;999.90;;
18144;SDS011;14857;41.200;-8.326;2022-08-01T08:52:44;1146.25;;;999.90;;
18144;SDS011;14857;41.200;-8.326;2022-08-01T08:55:15;1160.07;;;999.90;;
18144;SDS011;14857;41.200;-8.326;2022-08-01T08:57:45;1151.70;;;999.90;;
18144;SDS011;14857;41.200;-8.326;2022-08-01T09:00:14;1170.72;;;999.90;;
18144;SDS011;14857;41.200;-8.326;2022-08-01T09:02:46;1180.63;;;999.90;;
18144;SDS011;14857;41.200;-8.326;2022-08-01T09:05:16;1198.05;;;999.90;;
18144;SDS011;14857;41.200;-8.326;2022-08-01T09:08:06;1137.15;;;999.90;;
18144;SDS011;14857;41.200;-8.326;2022-08-01T09:10:35;1166.97;;;999.90;;
18144;SDS011;14857;41.200;-8.326;2022-08-01T09:13:07;1147.22;;;999.90;;
18144;SDS011;14857;41.200;-8.326;2022-08-01T09:15:39;1171.22;;;999.90;;
18144;SDS011;14857;41.200;-8.326;2022-08-01T09:18:30;1180.60;;;999.90;;
18144;SDS011;14857;41.200;-8.326;2022-08-01T09:21:07;1158.45;;;999.90;;
18144;SDS011;14857;41.200;-8.326;2022-08-01T09:23:41;1172.38;;;999.90;;
18144;SDS011;14857;41.200;-8.326;2022-08-01T09:26:20;1156.70;;;999.90;;
18144;SDS011;14857;41.200;-8.326;2022-08-01T09:28:56;1177.20;;;999.90;;
18144;SDS011;14857;41.200;-8.326;2022-08-01T09:31:26;1179.45;;;999.90;;
18144;SDS011;14857;41.200;-8.326;2022-08-01T09:34:05;1175.32;;;999.90;;
18144;SDS011;14857;41.200;-8.326;2022-08-01T09:36:46;1176.03;;;999.90;;
18144;SDS011;14857;41.200;-8.326;2022-08-01T09:39:34;1179.10;;;999.90;;
18144;SDS011;14857;41.200;-8.326;2022-08-01T09:42:18;1181.75;;;999.90;;
18144;SDS011;14857;41.200;-8.326;2022-08-01T09:44:55;1157.22;;;999.90;;
18144;SDS011;14857;41.200;-8.326;2022-08-01T09:47:23;1172.78;;;999.90;;
18144;SDS011;14857;41.200;-8.326;2022-08-01T09:50:07;1164.70;;;999.90;;
18144;SDS011;14857;41.200;-8.326;2022-08-01T09:52:37;1183.72;;;999.90;;
18144;SDS011;14857;41.200;-8.326;2022-08-01T09:55:07;1180.00;;;999.90;;
18144;SDS011;14857;41.200;-8.326;2022-08-01T09:57:36;1179.85;;;999.90;;
18144;SDS011;14857;41.200;-8.326;2022-08-01T10:00:05;1199.53;;;999.90;;
18144;SDS011;14857;41.200;-8.326;2022-08-01T10:05:52;1176.95;;;999.90;;
18144;SDS011;14857;41.200;-8.326;2022-08-01T10:08:21;1177.60;;;999.90;;
18144;SDS011;14857;41.200;-8.326;2022-08-01T10:11:04;1177.78;;;999.90;;
18144;SDS011;14857;41.200;-8.326;2022-08-01T10:13:38;1157.95;;;999.90;;
18144;SDS011;14857;41.200;-8.326;2022-08-01T10:16:07;1163.90;;;999.90;;
18144;SDS011;14857;41.200;-8.326;2022-08-01T10:18:41;1179.03;;;999.90;;
18144;SDS011;14857;41.200;-8.326;2022-08-01T10:21:14;1178.80;;;999.90;;
18144;SDS011;14857;41.200;-8.326;2022-08-01T10:24:03;1188.45;;;999.90;;
18144;SDS011;14857;41.200;-8.326;2022-08-01T10:26:36;1188.40;;;999.90;;
18144;SDS011;14857;41.200;-8.326;2022-08-01T10:29:06;1180.28;;;999.90;;
18144;SDS011;14857;41.200;-8.326;2022-08-01T10:31:56;1179.68;;;999.90;;
18144;SDS011;14857;41.200;-8.326;2022-08-01T10:34:26;1197.43;;;999.90;;
18144;SDS011;14857;41.200;-8.326;2022-08-01T10:36:59;1191.60;;;999.90;;
18144;SDS011;14857;41.200;-8.326;2022-08-01T10:39:31;1198.70;;;999.90;;
18144;SDS011;14857;41.200;-8.326;2022-08-01T10:42:00;1175.70;;;999.90;;
18144;SDS011;14857;41.200;-8.326;2022-08-01T10:44:34;1203.53;;;999.90;;
18144;SDS011;14857;41.200;-8.326;2022-08-01T10:47:06;1200.85;;;999.90;;
18144;SDS011;14857;41.200;-8.326;2022-08-01T10:49:41;1219.70;;;999.90;;
18144;SDS011;14857;41.200;-8.326;2022-08-01T10:52:17;1194.03;;;999.90;;
18144;SDS011;14857;41.200;-8.326;2022-08-01T10:54:47;1090.97;;;994.97;;
18144;SDS011;14857;41.200;-8.326;2022-08-01T10:57:18;1212.50;;;999.90;;
18144;SDS011;14857;41.200;-8.326;2022-08-01T10:59:53;1217.90;;;999.90;;
18144;SDS011;14857;41.200;-8.326;2022-08-01T11:02:27;1134.32;;;999.90;;
18144;SDS011;14857;41.200;-8.326;2022-08-01T11:05:01;1203.28;;;999.90;;
18144;SDS011;14857;41.200;-8.326;2022-08-01T11:07:41;1228.22;;;999.90;;
18144;SDS011;14857;41.200;-8.326;2022-08-01T11:10:20;1236.45;;;999.90;;
18144;SDS011;14857;41.200;-8.326;2022-08-01T11:12:52;1203.18;;;999.90;;
18144;SDS011;14857;41.200;-8.326;2022-08-01T11:15:24;1211.20;;;999.90;;
18144;SDS011;14857;41.200;-8.326;2022-08-01T11:17:57;1196.80;;;999.90;;
18144;SDS011;14857;41.200;-8.326;2022-08-01T11:20:28;1218.63;;;999.90;;
18144;SDS011;14857;41.200;-8.326;2022-08-01T11:23:18;1228.47;;;999.90;;
18144;SDS011;14857;41.200;-8.326;2022-08-01T11:26:08;1208.00;;;999.90;;
18144;SDS011;14857;41.200;-8.326;2022-08-01T11:28:44;1209.72;;;999.90;;
18144;SDS011;14857;41.200;-8.326;2022-08-01T11:31:34;1226.78;;;999.90;;
18144;SDS011;14857;41.200;-8.326;2022-08-01T11:34:04;1202.15;;;999.90;;
18144;SDS011;14857;41.200;-8.326;2022-08-01T11:36:33;1171.63;;;999.90;;
18144;SDS011;14857;41.200;-8.326;2022-08-01T11:39:23;1223.55;;;999.90;;
18144;SDS011;14857;41.200;-8.326;2022-08-01T11:41:52;1218.00;;;999.90;;
18144;SDS011;14857;41.200;-8.326;2022-08-01T11:44:22;1212.65;;;999.90;;
18144;SDS011;14857;41.200;-8.326;2022-08-01T11:47:00;1223.07;;;999.90;;
18144;SDS011;14857;41.200;-8.326;2022-08-01T11:49:45;1216.80;;;999.90;;
18144;SDS011;14857;41.200;-8.326;2022-08-01T11:52:18;1083.57;;;991.55;;
18144;SDS011;14857;41.200;-8.326;2022-08-01T11:54:54;1251.88;;;999.90;;
18144;SDS011;14857;41.200;-8.326;2022-08-01T11:57:24;1209.40;;;999.90;;
18144;SDS011;14857;41.200;-8.326;2022-08-01T12:00:02;1218.38;;;999.90;;
18144;SDS011;14857;41.200;-8.326;2022-08-01T12:02:40;1214.47;;;999.90;;
18144;SDS011;14857;41.200;-8.326;2022-08-01T12:05:12;1203.97;;;999.90;;
18144;SDS011;14857;41.200;-8.326;2022-08-01T12:07:42;1187.68;;;999.90;;
18144;SDS011;14857;41.200;-8.326;2022-08-01T12:10:14;1198.05;;;999.90;;
18144;SDS011;14857;41.200;-8.326;2022-08-01T12:12:45;1181.20;;;999.90;;
18144;SDS011;14857;41.200;-8.326;2022-08-01T12:15:16;1188.78;;;999.90;;
18144;SDS011;14857;41.200;-8.326;2022-08-01T12:17:47;1188.28;;;999.90;;
18144;SDS011;14857;41.200;-8.326;2022-08-01T12:20:25;1188.43;;;999.90;;
18144;SDS011;14857;41.200;-8.326;2022-08-01T12:22:57;1171.93;;;999.90;;
18144;SDS011;14857;41.200;-8.326;2022-08-01T12:25:29;1178.70;;;999.90;;
18144;SDS011;14857;41.200;-8.326;2022-08-01T12:27:59;1181.88;;;999.90;;
18144;SDS011;14857;41.200;-8.326;2022-08-01T12:30:29;1176.75;;;999.90;;
18144;SDS011;14857;41.200;-8.326;2022-08-01T12:33:02;1158.85;;;999.90;;
18144;SDS011;14857;41.200;-8.326;2022-08-01T12:35:33;1166.32;;;999.90;;
18144;SDS011;14857;41.200;-8.326;2022-08-01T12:38:03;1167.85;;;999.90;;
18144;SDS011;14857;41.200;-8.326;2022-08-01T12:40:35;1162.50;;;999.90;;
18144;SDS011;14857;41.200;-8.326;2022-08-01T12:43:15;1159.10;;;999.90;;
18144;SDS011;14857;41.200;-8.326;2022-08-01T12:45:55;1167.30;;;999.90;;
18144;SDS011;14857;41.200;-8.326;2022-08-01T12:48:27;1127.85;;;999.90;;
18144;SDS011;14857;41.200;-8.326;2022-08-01T12:50:58;1144.63;;;999.90;;
18144;SDS011;14857;41.200;-8.326;2022-08-01T12:53:30;1119.70;;;999.90;;
18144;SDS011;14857;41.200;-8.326;2022-08-01T12:56:08;1130.50;;;999.90;;
18144;SDS011;14857;41.200;-8.326;2022-08-01T12:58:38;1122.25;;;999.90;;
18144;SDS011;14857;41.200;-8.326;2022-08-01T13:01:07;1139.32;;;999.90;;
18144;SDS011;14857;41.200;-8.326;2022-08-01T13:03:37;1131.95;;;999.90;;
18144;SDS011;14857;41.200;-8.326;2022-08-01T13:06:10;1139.82;;;999.90;;
18144;SDS011;14857;41.200;-8.326;2022-08-01T13:08:42;1145.75;;;999.90;;
18144;SDS011;14857;41.200;-8.326;2022-08-01T13:11:13;1151.93;;;999.90;;
18144;SDS011;14857;41.200;-8.326;2022-08-01T13:13:45;1148.63;;;999.90;;
18144;SDS011;14857;41.200;-8.326;2022-08-01T13:16:15;1138.13;;;999.90;;
18144;SDS011;14857;41.200;-8.326;2022-08-01T13:19:04;1132.60;;;999.90;;
18144;SDS011;14857;41.200;-8.326;2022-08-01T13:21:33;1139.97;;;999.90;;
18144;SDS011;14857;41.200;-8.326;2022-08-01T13:24:23;1127.55;;;999.90;;
18144;SDS011;14857;41.200;-8.326;2022-08-01T13:26:55;1111.97;;;999.72;;
18144;SDS011;14857;41.200;-8.326;2022-08-01T13:29:30;1076.03;;;980.95;;
18144;SDS011;14857;41.200;-8.326;2022-08-01T13:31:59;125.80;;;115.70;;
18144;SDS011;14857;41.200;-8.326;2022-08-01T13:34:29;1102.97;;;998.85;;
18144;SDS011;14857;41.200;-8.326;2022-08-01T13:36:58;134.82;;;124.22;;
18144;SDS011;14857;41.200;-8.326;2022-08-01T13:39:33;14.30;;;7.13;;
18144;SDS011;14857;41.200;-8.326;2022-08-01T13:42:09;20.92;;;9.45;;
18144;SDS011;14857;41.200;-8.326;2022-08-01T13:44:45;62.03;;;29.02;;
18144;SDS011;14857;41.200;-8.326;2022-08-01T13:47:13;20.35;;;10.50;;
18144;SDS011;14857;41.200;-8.326;2022-08-01T13:49:42;15.13;;;7.63;;
18144;SDS011;14857;41.200;-8.326;2022-08-01T13:52:11;14.90;;;6.97;;
18144;SDS011;14857;41.200;-8.326;2022-08-01T13:54:40;109.63;;;44.22;;
18144;SDS011;14857;41.200;-8.326;2022-08-01T13:57:10;49.65;;;31.92;;
18144;SDS011;14857;41.200;-8.326;2022-08-01T13:59:38;88.85;;;39.42;;
18144;SDS011;14857;41.200;-8.326;2022-08-01T14:02:07;19.80;;;7.90;;
18144;SDS011;14857;41.200;-8.326;2022-08-01T14:04:36;16.58;;;6.50;;
18144;SDS011;14857;41.200;-8.326;2022-08-01T14:07:04;12.90;;;6.22;;
18144;SDS011;14857;41.200;-8.326;2022-08-01T14:09:37;13.93;;;6.50;;
18144;SDS011;14857;41.200;-8.326;2022-08-01T14:12:28;8.02;;;5.60;;
18144;SDS011;14857;41.200;-8.326;2022-08-01T14:14:56;10.95;;;6.00;;
18144;SDS011;14857;41.200;-8.326;2022-08-01T14:17:25;14.00;;;5.65;;